sensor_id;sensor_type;location;lat;lon;timestamp;temperature;humidity
70368;DHT22;57789;53.868;10.728;2022-08-04T00:04:03;21.40;99.90
70368;DHT22;57789;53.868;10.728;2022-08-04T00:06:46;21.50;99.90
70368;DHT22;57789;53.868;10.728;2022-08-04T00:09:18;21.60;99.90
70368;DHT22;57789;53.868;10.728;2022-08-04T00:11:48;21.60;99.90
70368;DHT22;57789;53.868;10.728;2022-08-04T00:14:15;21.60;99.90
70368;DHT22;57789;53.868;10.728;2022-08-04T00:16:43;21.50;99.90
70368;DHT22;57789;53.868;10.728;2022-08-04T00:19:25;21.50;99.90
70368;DHT22;57789;53.868;10.728;2022-08-04T00:21:59;21.60;99.90
70368;DHT22;57789;53.868;10.728;2022-08-04T00:24:30;21.70;99.90
70368;DHT22;57789;53.868;10.728;2022-08-04T00:26:56;21.80;99.90
70368;DHT22;57789;53.868;10.728;2022-08-04T00:29:22;21.90;99.90
70368;DHT22;57789;53.868;10.728;2022-08-04T00:31:49;21.70;99.90
70368;DHT22;57789;53.868;10.728;2022-08-04T00:34:15;21.60;99.90
70368;DHT22;57789;53.868;10.728;2022-08-04T00:36:43;21.60;99.90
70368;DHT22;57789;53.868;10.728;2022-08-04T00:39:13;21.60;99.90
70368;DHT22;57789;53.868;10.728;2022-08-04T00:42:06;21.50;99.90
70368;DHT22;57789;53.868;10.728;2022-08-04T00:55:09;21.60;99.90
70368;DHT22;57789;53.868;10.728;2022-08-04T00:58:05;21.60;99.90
70368;DHT22;57789;53.868;10.728;2022-08-04T01:01:02;21.70;99.90
70368;DHT22;57789;53.868;10.728;2022-08-04T01:03:50;21.60;99.90
70368;DHT22;57789;53.868;10.728;2022-08-04T01:06:36;21.70;99.90
70368;DHT22;57789;53.868;10.728;2022-08-04T01:20:07;21.40;99.90
70368;DHT22;57789;53.868;10.728;2022-08-04T01:30:51;21.40;99.90
70368;DHT22;57789;53.868;10.728;2022-08-04T01:33:21;21.30;99.90
70368;DHT22;57789;53.868;10.728;2022-08-04T01:35:52;21.20;99.90
70368;DHT22;57789;53.868;10.728;2022-08-04T01:38:36;21.20;99.90
70368;DHT22;57789;53.868;10.728;2022-08-04T01:43:32;21.30;99.90
70368;DHT22;57789;53.868;10.728;2022-08-04T01:46:01;21.30;99.90
70368;DHT22;57789;53.868;10.728;2022-08-04T01:48:28;21.40;99.90
70368;DHT22;57789;53.868;10.728;2022-08-04T01:51:02;21.40;99.90
70368;DHT22;57789;53.868;10.728;2022-08-04T01:53:31;21.40;99.90
70368;DHT22;57789;53.868;10.728;2022-08-04T01:55:57;21.40;99.90
70368;DHT22;57789;53.868;10.728;2022-08-04T01:58:24;21.30;99.90
70368;DHT22;57789;53.868;10.728;2022-08-04T02:00:57;21.30;99.90
70368;DHT22;57789;53.868;10.728;2022-08-04T02:03:24;21.20;99.90
70368;DHT22;57789;53.868;10.728;2022-08-04T02:05:50;21.20;99.90
70368;DHT22;57789;53.868;10.728;2022-08-04T02:13:27;21.00;99.90
70368;DHT22;57789;53.868;10.728;2022-08-04T02:16:07;21.00;99.90
70368;DHT22;57789;53.868;10.728;2022-08-04T02:21:05;21.00;99.90
70368;DHT22;57789;53.868;10.728;2022-08-04T02:23:36;20.80;99.90
70368;DHT22;57789;53.868;10.728;2022-08-04T02:26:05;20.80;99.90
70368;DHT22;57789;53.868;10.728;2022-08-04T02:28:46;20.80;99.90
70368;DHT22;57789;53.868;10.728;2022-08-04T02:34:08;20.80;99.90
70368;DHT22;57789;53.868;10.728;2022-08-04T02:36:40;20.90;99.90
70368;DHT22;57789;53.868;10.728;2022-08-04T02:39:10;20.80;99.90
70368;DHT22;57789;53.868;10.728;2022-08-04T02:41:37;20.80;99.90
70368;DHT22;57789;53.868;10.728;2022-08-04T02:44:06;20.70;99.90
70368;DHT22;57789;53.868;10.728;2022-08-04T02:46:34;20.70;99.90
70368;DHT22;57789;53.868;10.728;2022-08-04T02:49:07;20.70;99.90
70368;DHT22;57789;53.868;10.728;2022-08-04T02:51:41;20.70;99.90
70368;DHT22;57789;53.868;10.728;2022-08-04T02:54:08;20.60;99.90
70368;DHT22;57789;53.868;10.728;2022-08-04T02:56:35;20.50;99.90
70368;DHT22;57789;53.868;10.728;2022-08-04T02:59:04;20.50;99.90
70368;DHT22;57789;53.868;10.728;2022-08-04T03:01:31;20.50;99.90
70368;DHT22;57789;53.868;10.728;2022-08-04T03:12:38;20.60;99.90
70368;DHT22;57789;53.868;10.728;2022-08-04T03:43:07;20.50;99.90
70368;DHT22;57789;53.868;10.728;2022-08-04T03:48:18;20.50;99.90
70368;DHT22;57789;53.868;10.728;2022-08-04T03:56:55;20.50;99.90
70368;DHT22;57789;53.868;10.728;2022-08-04T03:59:55;20.40;99.90
70368;DHT22;57789;53.868;10.728;2022-08-04T04:02:32;20.30;99.90
70368;DHT22;57789;53.868;10.728;2022-08-04T04:11:06;20.50;99.90
70368;DHT22;57789;53.868;10.728;2022-08-04T04:13:49;20.40;99.90
70368;DHT22;57789;53.868;10.728;2022-08-04T04:16:43;20.40;99.90
70368;DHT22;57789;53.868;10.728;2022-08-04T04:30:26;20.10;99.90
70368;DHT22;57789;53.868;10.728;2022-08-04T04:33:05;20.00;99.90
70368;DHT22;57789;53.868;10.728;2022-08-04T04:44:22;20.00;99.90
70368;DHT22;57789;53.868;10.728;2022-08-04T04:49:47;20.30;99.90
70368;DHT22;57789;53.868;10.728;2022-08-04T04:52:25;20.50;99.90
70368;DHT22;57789;53.868;10.728;2022-08-04T04:57:20;20.60;99.90
70368;DHT22;57789;53.868;10.728;2022-08-04T05:13:56;20.60;99.90
70368;DHT22;57789;53.868;10.728;2022-08-04T05:16:42;20.60;99.90
70368;DHT22;57789;53.868;10.728;2022-08-04T05:22:14;20.80;99.90
70368;DHT22;57789;53.868;10.728;2022-08-04T05:24:45;20.70;99.90
70368;DHT22;57789;53.868;10.728;2022-08-04T05:27:24;20.80;99.90
70368;DHT22;57789;53.868;10.728;2022-08-04T05:29:53;20.80;99.90
70368;DHT22;57789;53.868;10.728;2022-08-04T05:32:28;20.90;99.90
70368;DHT22;57789;53.868;10.728;2022-08-04T05:34:59;21.00;99.90
70368;DHT22;57789;53.868;10.728;2022-08-04T05:37:29;21.00;99.90
70368;DHT22;57789;53.868;10.728;2022-08-04T05:39:58;21.10;99.90
70368;DHT22;57789;53.868;10.728;2022-08-04T05:42:26;21.10;99.90
70368;DHT22;57789;53.868;10.728;2022-08-04T05:44:53;21.20;99.90
70368;DHT22;57789;53.868;10.728;2022-08-04T05:47:19;21.20;99.90
70368;DHT22;57789;53.868;10.728;2022-08-04T05:49:46;21.40;99.90
70368;DHT22;57789;53.868;10.728;2022-08-04T05:52:13;21.50;99.90
70368;DHT22;57789;53.868;10.728;2022-08-04T05:54:40;21.60;99.90
70368;DHT22;57789;53.868;10.728;2022-08-04T05:57:07;21.70;99.90
70368;DHT22;57789;53.868;10.728;2022-08-04T05:59:37;21.70;99.90
70368;DHT22;57789;53.868;10.728;2022-08-04T06:02:04;21.80;99.90
70368;DHT22;57789;53.868;10.728;2022-08-04T06:04:41;21.80;99.90
70368;DHT22;57789;53.868;10.728;2022-08-04T06:07:07;21.90;99.90
70368;DHT22;57789;53.868;10.728;2022-08-04T06:09:36;22.00;99.90
70368;DHT22;57789;53.868;10.728;2022-08-04T06:12:16;22.10;99.90
70368;DHT22;57789;53.868;10.728;2022-08-04T06:14:47;22.20;99.90
70368;DHT22;57789;53.868;10.728;2022-08-04T06:17:28;22.30;99.90
70368;DHT22;57789;53.868;10.728;2022-08-04T06:19:55;22.40;99.90
70368;DHT22;57789;53.868;10.728;2022-08-04T06:22:23;22.60;99.90
70368;DHT22;57789;53.868;10.728;2022-08-04T06:24:50;22.70;99.90
70368;DHT22;57789;53.868;10.728;2022-08-04T06:27:17;22.80;99.90
70368;DHT22;57789;53.868;10.728;2022-08-04T06:29:45;23.00;99.90
70368;DHT22;57789;53.868;10.728;2022-08-04T06:32:13;23.10;99.90
70368;DHT22;57789;53.868;10.728;2022-08-04T06:34:54;23.20;99.90
70368;DHT22;57789;53.868;10.728;2022-08-04T06:37:22;23.20;99.90
70368;DHT22;57789;53.868;10.728;2022-08-04T06:39:49;23.30;99.90
70368;DHT22;57789;53.868;10.728;2022-08-04T06:42:23;23.40;99.90
70368;DHT22;57789;53.868;10.728;2022-08-04T06:44:51;23.50;99.90
70368;DHT22;57789;53.868;10.728;2022-08-04T06:47:18;23.60;99.90
70368;DHT22;57789;53.868;10.728;2022-08-04T06:49:49;23.70;99.90
70368;DHT22;57789;53.868;10.728;2022-08-04T06:52:16;23.80;99.90
70368;DHT22;57789;53.868;10.728;2022-08-04T06:54:44;24.00;99.90
70368;DHT22;57789;53.868;10.728;2022-08-04T06:57:12;24.10;99.90
70368;DHT22;57789;53.868;10.728;2022-08-04T06:59:44;24.20;99.90
70368;DHT22;57789;53.868;10.728;2022-08-04T07:02:14;24.30;99.90
70368;DHT22;57789;53.868;10.728;2022-08-04T07:04:43;24.40;99.90
70368;DHT22;57789;53.868;10.728;2022-08-04T07:07:10;24.50;99.90
70368;DHT22;57789;53.868;10.728;2022-08-04T07:09:37;24.60;99.90
70368;DHT22;57789;53.868;10.728;2022-08-04T07:12:05;24.70;99.90
70368;DHT22;57789;53.868;10.728;2022-08-04T07:14:31;24.80;99.90
70368;DHT22;57789;53.868;10.728;2022-08-04T07:17:05;24.90;99.90
70368;DHT22;57789;53.868;10.728;2022-08-04T07:19:32;25.00;99.90
70368;DHT22;57789;53.868;10.728;2022-08-04T07:22:07;25.00;99.90
70368;DHT22;57789;53.868;10.728;2022-08-04T07:24:35;25.10;99.90
70368;DHT22;57789;53.868;10.728;2022-08-04T07:27:02;25.20;99.90
70368;DHT22;57789;53.868;10.728;2022-08-04T07:29:28;25.30;99.90
70368;DHT22;57789;53.868;10.728;2022-08-04T07:31:56;25.40;99.90
70368;DHT22;57789;53.868;10.728;2022-08-04T07:34:23;25.60;99.90
70368;DHT22;57789;53.868;10.728;2022-08-04T07:36:52;25.70;99.90
70368;DHT22;57789;53.868;10.728;2022-08-04T07:39:18;25.80;99.90
70368;DHT22;57789;53.868;10.728;2022-08-04T07:41:46;25.80;99.90
70368;DHT22;57789;53.868;10.728;2022-08-04T07:44:13;26.00;99.90
70368;DHT22;57789;53.868;10.728;2022-08-04T07:46:40;26.00;99.90
70368;DHT22;57789;53.868;10.728;2022-08-04T07:49:07;26.10;99.90
70368;DHT22;57789;53.868;10.728;2022-08-04T07:51:34;26.10;99.90
70368;DHT22;57789;53.868;10.728;2022-08-04T07:54:00;26.20;99.90
70368;DHT22;57789;53.868;10.728;2022-08-04T07:56:35;26.30;99.90
70368;DHT22;57789;53.868;10.728;2022-08-04T07:59:01;26.40;99.90
70368;DHT22;57789;53.868;10.728;2022-08-04T08:01:27;26.60;99.90
70368;DHT22;57789;53.868;10.728;2022-08-04T08:03:55;26.70;99.90
70368;DHT22;57789;53.868;10.728;2022-08-04T08:06:22;26.80;99.90
70368;DHT22;57789;53.868;10.728;2022-08-04T08:08:48;26.90;99.90
70368;DHT22;57789;53.868;10.728;2022-08-04T08:11:15;27.10;99.90
70368;DHT22;57789;53.868;10.728;2022-08-04T08:13:42;27.20;99.90
70368;DHT22;57789;53.868;10.728;2022-08-04T08:16:09;27.30;99.90
70368;DHT22;57789;53.868;10.728;2022-08-04T08:18:35;27.40;99.90
70368;DHT22;57789;53.868;10.728;2022-08-04T08:21:01;27.60;99.90
70368;DHT22;57789;53.868;10.728;2022-08-04T08:23:29;27.70;99.90
70368;DHT22;57789;53.868;10.728;2022-08-04T08:25:57;27.70;99.90
70368;DHT22;57789;53.868;10.728;2022-08-04T08:28:23;27.90;99.90
70368;DHT22;57789;53.868;10.728;2022-08-04T08:30:49;28.00;99.90
70368;DHT22;57789;53.868;10.728;2022-08-04T08:33:15;28.20;99.90
70368;DHT22;57789;53.868;10.728;2022-08-04T08:35:49;28.30;99.90
70368;DHT22;57789;53.868;10.728;2022-08-04T08:38:19;28.40;99.90
70368;DHT22;57789;53.868;10.728;2022-08-04T08:40:52;28.50;99.90
70368;DHT22;57789;53.868;10.728;2022-08-04T08:51:51;29.00;99.90
70368;DHT22;57789;53.868;10.728;2022-08-04T08:54:31;29.10;99.90
70368;DHT22;57789;53.868;10.728;2022-08-04T09:00:17;29.40;99.90
70368;DHT22;57789;53.868;10.728;2022-08-04T09:11:11;30.20;99.90
70368;DHT22;57789;53.868;10.728;2022-08-04T09:13:40;30.30;99.90
70368;DHT22;57789;53.868;10.728;2022-08-04T09:21:50;30.90;98.20
70368;DHT22;57789;53.868;10.728;2022-08-04T09:26:56;31.20;97.50
70368;DHT22;57789;53.868;10.728;2022-08-04T09:29:40;31.30;97.50
70368;DHT22;57789;53.868;10.728;2022-08-04T09:40:54;31.70;95.70
70368;DHT22;57789;53.868;10.728;2022-08-04T09:43:35;31.80;95.80
70368;DHT22;57789;53.868;10.728;2022-08-04T09:46:14;31.80;95.50
70368;DHT22;57789;53.868;10.728;2022-08-04T09:49:20;32.00;94.60
70368;DHT22;57789;53.868;10.728;2022-08-04T09:51:48;32.10;94.50
70368;DHT22;57789;53.868;10.728;2022-08-04T09:59:44;32.50;93.20
70368;DHT22;57789;53.868;10.728;2022-08-04T10:02:16;32.80;92.40
70368;DHT22;57789;53.868;10.728;2022-08-04T10:04:45;32.70;91.50
70368;DHT22;57789;53.868;10.728;2022-08-04T10:07:27;32.60;90.60
70368;DHT22;57789;53.868;10.728;2022-08-04T10:10:16;32.60;91.00
70368;DHT22;57789;53.868;10.728;2022-08-04T10:18:02;32.40;90.70
70368;DHT22;57789;53.868;10.728;2022-08-04T10:26:54;32.80;89.40
70368;DHT22;57789;53.868;10.728;2022-08-04T10:29:45;32.90;88.80
70368;DHT22;57789;53.868;10.728;2022-08-04T10:32:28;32.90;87.20
70368;DHT22;57789;53.868;10.728;2022-08-04T10:35:16;32.80;88.20
70368;DHT22;57789;53.868;10.728;2022-08-04T10:38:04;32.70;87.50
70368;DHT22;57789;53.868;10.728;2022-08-04T10:40:44;32.70;86.80
70368;DHT22;57789;53.868;10.728;2022-08-04T10:54:05;33.00;88.00
70368;DHT22;57789;53.868;10.728;2022-08-04T10:56:35;33.20;86.10
70368;DHT22;57789;53.868;10.728;2022-08-04T10:59:11;33.20;84.30
70368;DHT22;57789;53.868;10.728;2022-08-04T11:01:44;33.20;83.50
70368;DHT22;57789;53.868;10.728;2022-08-04T11:04:41;33.40;84.20
70368;DHT22;57789;53.868;10.728;2022-08-04T11:07:07;33.40;82.30
70368;DHT22;57789;53.868;10.728;2022-08-04T11:09:34;33.50;83.30
70368;DHT22;57789;53.868;10.728;2022-08-04T11:12:08;33.80;82.00
70368;DHT22;57789;53.868;10.728;2022-08-04T11:17:35;34.10;79.40
70368;DHT22;57789;53.868;10.728;2022-08-04T11:22:47;34.50;77.90
70368;DHT22;57789;53.868;10.728;2022-08-04T11:25:19;34.70;76.90
70368;DHT22;57789;53.868;10.728;2022-08-04T11:28:02;34.70;75.60
70368;DHT22;57789;53.868;10.728;2022-08-04T11:31:16;34.70;75.00
70368;DHT22;57789;53.868;10.728;2022-08-04T11:33:43;34.90;74.60
70368;DHT22;57789;53.868;10.728;2022-08-04T11:37:26;35.10;74.60
70368;DHT22;57789;53.868;10.728;2022-08-04T11:39:37;35.00;72.20
70368;DHT22;57789;53.868;10.728;2022-08-04T11:42:19;34.90;71.70
70368;DHT22;57789;53.868;10.728;2022-08-04T11:44:50;34.90;71.90
70368;DHT22;57789;53.868;10.728;2022-08-04T11:47:33;34.90;70.80
70368;DHT22;57789;53.868;10.728;2022-08-04T11:52:31;34.80;69.60
70368;DHT22;57789;53.868;10.728;2022-08-04T11:55:02;34.90;70.10
70368;DHT22;57789;53.868;10.728;2022-08-04T11:57:29;35.00;70.80
70368;DHT22;57789;53.868;10.728;2022-08-04T11:59:56;35.00;70.00
70368;DHT22;57789;53.868;10.728;2022-08-04T12:02:35;35.20;69.10
70368;DHT22;57789;53.868;10.728;2022-08-04T12:05:07;35.30;67.90
70368;DHT22;57789;53.868;10.728;2022-08-04T12:16:51;36.60;65.20
70368;DHT22;57789;53.868;10.728;2022-08-04T12:19:40;36.70;63.70
70368;DHT22;57789;53.868;10.728;2022-08-04T12:22:24;37.20;63.50
70368;DHT22;57789;53.868;10.728;2022-08-04T12:27:30;37.70;61.90
70368;DHT22;57789;53.868;10.728;2022-08-04T12:29:58;37.90;60.50
70368;DHT22;57789;53.868;10.728;2022-08-04T12:33:06;38.10;59.80
70368;DHT22;57789;53.868;10.728;2022-08-04T12:35:59;38.60;59.30
70368;DHT22;57789;53.868;10.728;2022-08-04T12:38:29;38.40;56.90
70368;DHT22;57789;53.868;10.728;2022-08-04T12:40:59;38.70;58.00
70368;DHT22;57789;53.868;10.728;2022-08-04T12:43:40;39.40;58.00
70368;DHT22;57789;53.868;10.728;2022-08-04T12:46:11;39.50;55.40
70368;DHT22;57789;53.868;10.728;2022-08-04T12:48:38;40.00;55.10
70368;DHT22;57789;53.868;10.728;2022-08-04T12:51:09;40.20;53.40
70368;DHT22;57789;53.868;10.728;2022-08-04T12:53:41;40.90;50.40
70368;DHT22;57789;53.868;10.728;2022-08-04T12:56:11;40.80;50.90
70368;DHT22;57789;53.868;10.728;2022-08-04T12:58:46;40.60;49.90
70368;DHT22;57789;53.868;10.728;2022-08-04T13:01:29;40.70;50.00
70368;DHT22;57789;53.868;10.728;2022-08-04T13:03:59;40.40;47.80
70368;DHT22;57789;53.868;10.728;2022-08-04T13:06:36;41.00;47.80
70368;DHT22;57789;53.868;10.728;2022-08-04T13:09:05;41.70;47.00
70368;DHT22;57789;53.868;10.728;2022-08-04T13:11:38;41.50;44.40
70368;DHT22;57789;53.868;10.728;2022-08-04T13:14:05;41.60;45.40
70368;DHT22;57789;53.868;10.728;2022-08-04T13:16:32;42.00;45.10
70368;DHT22;57789;53.868;10.728;2022-08-04T13:18:59;41.90;43.60
70368;DHT22;57789;53.868;10.728;2022-08-04T13:21:27;42.40;44.00
70368;DHT22;57789;53.868;10.728;2022-08-04T13:24:14;42.40;43.40
70368;DHT22;57789;53.868;10.728;2022-08-04T13:27:02;42.00;43.60
70368;DHT22;57789;53.868;10.728;2022-08-04T13:29:40;41.80;43.10
70368;DHT22;57789;53.868;10.728;2022-08-04T13:32:08;41.50;42.60
70368;DHT22;57789;53.868;10.728;2022-08-04T13:34:35;41.40;43.10
70368;DHT22;57789;53.868;10.728;2022-08-04T13:37:02;41.90;43.40
70368;DHT22;57789;53.868;10.728;2022-08-04T13:39:29;42.10;42.90
70368;DHT22;57789;53.868;10.728;2022-08-04T13:41:57;42.30;42.30
70368;DHT22;57789;53.868;10.728;2022-08-04T13:44:27;41.80;42.10
70368;DHT22;57789;53.868;10.728;2022-08-04T13:47:08;41.00;41.70
70368;DHT22;57789;53.868;10.728;2022-08-04T13:49:34;40.70;42.70
70368;DHT22;57789;53.868;10.728;2022-08-04T13:52:04;40.60;43.50
70368;DHT22;57789;53.868;10.728;2022-08-04T13:54:40;40.40;43.40
70368;DHT22;57789;53.868;10.728;2022-08-04T13:57:11;40.40;43.30
70368;DHT22;57789;53.868;10.728;2022-08-04T13:59:44;39.90;43.70
70368;DHT22;57789;53.868;10.728;2022-08-04T14:05:16;38.70;44.90
70368;DHT22;57789;53.868;10.728;2022-08-04T14:07:50;38.20;46.70
70368;DHT22;57789;53.868;10.728;2022-08-04T14:10:18;38.00;46.90
70368;DHT22;57789;53.868;10.728;2022-08-04T14:12:49;37.70;46.20
70368;DHT22;57789;53.868;10.728;2022-08-04T14:15:38;38.00;47.10
70368;DHT22;57789;53.868;10.728;2022-08-04T14:18:28;39.00;46.70
70368;DHT22;57789;53.868;10.728;2022-08-04T14:21:06;39.80;45.70
70368;DHT22;57789;53.868;10.728;2022-08-04T14:23:45;39.60;43.60
70368;DHT22;57789;53.868;10.728;2022-08-04T14:28:44;38.70;44.90
70368;DHT22;57789;53.868;10.728;2022-08-04T14:31:14;38.30;45.80
70368;DHT22;57789;53.868;10.728;2022-08-04T14:33:41;38.60;44.90
70368;DHT22;57789;53.868;10.728;2022-08-04T14:36:08;39.80;45.20
70368;DHT22;57789;53.868;10.728;2022-08-04T14:39:06;40.50;42.70
70368;DHT22;57789;53.868;10.728;2022-08-04T14:41:47;41.10;41.10
70368;DHT22;57789;53.868;10.728;2022-08-04T14:44:13;41.80;41.10
70368;DHT22;57789;53.868;10.728;2022-08-04T14:46:52;42.50;40.50
70368;DHT22;57789;53.868;10.728;2022-08-04T14:49:18;41.90;38.50
70368;DHT22;57789;53.868;10.728;2022-08-04T14:54:16;40.40;40.50
70368;DHT22;57789;53.868;10.728;2022-08-04T14:56:54;39.70;41.70
70368;DHT22;57789;53.868;10.728;2022-08-04T14:59:21;39.10;41.70
70368;DHT22;57789;53.868;10.728;2022-08-04T15:01:48;38.70;42.50
70368;DHT22;57789;53.868;10.728;2022-08-04T15:04:14;38.90;43.90
70368;DHT22;57789;53.868;10.728;2022-08-04T15:06:40;38.90;43.20
70368;DHT22;57789;53.868;10.728;2022-08-04T15:09:12;38.50;43.20
70368;DHT22;57789;53.868;10.728;2022-08-04T15:11:38;38.50;43.80
70368;DHT22;57789;53.868;10.728;2022-08-04T15:14:04;38.70;43.90
70368;DHT22;57789;53.868;10.728;2022-08-04T15:16:31;38.60;42.50
70368;DHT22;57789;53.868;10.728;2022-08-04T15:18:58;38.30;43.30
70368;DHT22;57789;53.868;10.728;2022-08-04T15:21:26;38.10;43.50
70368;DHT22;57789;53.868;10.728;2022-08-04T15:23:57;37.70;43.30
70368;DHT22;57789;53.868;10.728;2022-08-04T15:26:43;37.30;44.40
70368;DHT22;57789;53.868;10.728;2022-08-04T15:29:18;36.70;44.40
70368;DHT22;57789;53.868;10.728;2022-08-04T15:31:45;36.40;45.30
70368;DHT22;57789;53.868;10.728;2022-08-04T15:34:12;36.00;45.90
70368;DHT22;57789;53.868;10.728;2022-08-04T15:39:33;35.20;46.00
70368;DHT22;57789;53.868;10.728;2022-08-04T15:42:12;35.00;46.30
70368;DHT22;57789;53.868;10.728;2022-08-04T15:45:01;34.70;47.20
70368;DHT22;57789;53.868;10.728;2022-08-04T15:47:28;34.40;48.80
70368;DHT22;57789;53.868;10.728;2022-08-04T15:50:23;33.80;51.30
70368;DHT22;57789;53.868;10.728;2022-08-04T15:55:37;33.00;54.80
70368;DHT22;57789;53.868;10.728;2022-08-04T16:16:45;30.90;66.90
70368;DHT22;57789;53.868;10.728;2022-08-04T16:19:48;30.70;68.60
70368;DHT22;57789;53.868;10.728;2022-08-04T16:22:54;30.60;68.10
70368;DHT22;57789;53.868;10.728;2022-08-04T16:25:41;30.50;69.30
70368;DHT22;57789;53.868;10.728;2022-08-04T16:28:06;30.40;69.80
70368;DHT22;57789;53.868;10.728;2022-08-04T16:30:39;30.30;71.20
70368;DHT22;57789;53.868;10.728;2022-08-04T16:33:07;30.20;73.80
70368;DHT22;57789;53.868;10.728;2022-08-04T16:35:33;30.10;76.50
70368;DHT22;57789;53.868;10.728;2022-08-04T16:38:13;29.80;80.50
70368;DHT22;57789;53.868;10.728;2022-08-04T16:40:40;29.60;87.40
70368;DHT22;57789;53.868;10.728;2022-08-04T16:43:14;29.40;91.70
70368;DHT22;57789;53.868;10.728;2022-08-04T16:45:52;28.90;97.60
70368;DHT22;57789;53.868;10.728;2022-08-04T16:48:30;28.10;99.90
70368;DHT22;57789;53.868;10.728;2022-08-04T16:51:06;27.00;99.90
70368;DHT22;57789;53.868;10.728;2022-08-04T16:53:38;25.60;99.90
70368;DHT22;57789;53.868;10.728;2022-08-04T16:56:05;23.80;99.90
70368;DHT22;57789;53.868;10.728;2022-08-04T16:58:33;22.70;99.90
70368;DHT22;57789;53.868;10.728;2022-08-04T17:01:07;22.10;99.90
70368;DHT22;57789;53.868;10.728;2022-08-04T17:03:37;21.60;99.90
70368;DHT22;57789;53.868;10.728;2022-08-04T17:06:13;21.30;99.90
70368;DHT22;57789;53.868;10.728;2022-08-04T17:08:43;21.00;99.90
70368;DHT22;57789;53.868;10.728;2022-08-04T17:11:09;20.80;99.90
70368;DHT22;57789;53.868;10.728;2022-08-04T17:13:40;20.70;99.90
70368;DHT22;57789;53.868;10.728;2022-08-04T17:16:12;20.60;99.90
70368;DHT22;57789;53.868;10.728;2022-08-04T17:18:42;20.50;99.90
70368;DHT22;57789;53.868;10.728;2022-08-04T17:21:11;20.50;99.90
70368;DHT22;57789;53.868;10.728;2022-08-04T17:23:44;20.60;99.90
70368;DHT22;57789;53.868;10.728;2022-08-04T17:26:15;20.80;99.90
70368;DHT22;57789;53.868;10.728;2022-08-04T17:28:41;20.90;99.90
70368;DHT22;57789;53.868;10.728;2022-08-04T17:31:10;21.20;99.90
70368;DHT22;57789;53.868;10.728;2022-08-04T17:33:43;21.50;99.90
70368;DHT22;57789;53.868;10.728;2022-08-04T17:36:09;21.80;99.90
70368;DHT22;57789;53.868;10.728;2022-08-04T17:38:47;22.20;99.90
70368;DHT22;57789;53.868;10.728;2022-08-04T17:41:15;22.20;99.90
70368;DHT22;57789;53.868;10.728;2022-08-04T17:43:52;22.20;99.90
70368;DHT22;57789;53.868;10.728;2022-08-04T17:46:21;22.10;99.90
70368;DHT22;57789;53.868;10.728;2022-08-04T17:51:54;22.10;99.90
70368;DHT22;57789;53.868;10.728;2022-08-04T17:54:30;22.20;99.90
70368;DHT22;57789;53.868;10.728;2022-08-04T17:57:19;22.60;99.90
70368;DHT22;57789;53.868;10.728;2022-08-04T17:59:45;23.10;99.90
70368;DHT22;57789;53.868;10.728;2022-08-04T18:02:16;23.60;99.90
70368;DHT22;57789;53.868;10.728;2022-08-04T18:07:19;24.40;99.90
70368;DHT22;57789;53.868;10.728;2022-08-04T18:12:27;24.70;99.90
70368;DHT22;57789;53.868;10.728;2022-08-04T18:15:04;24.30;99.90
70368;DHT22;57789;53.868;10.728;2022-08-04T18:17:40;23.90;99.90
70368;DHT22;57789;53.868;10.728;2022-08-04T18:20:16;23.50;99.90
70368;DHT22;57789;53.868;10.728;2022-08-04T18:22:44;23.20;99.90
70368;DHT22;57789;53.868;10.728;2022-08-04T18:25:13;23.00;99.90
70368;DHT22;57789;53.868;10.728;2022-08-04T18:27:48;22.90;99.90
70368;DHT22;57789;53.868;10.728;2022-08-04T18:30:14;22.70;99.90
70368;DHT22;57789;53.868;10.728;2022-08-04T18:32:40;22.60;99.90
70368;DHT22;57789;53.868;10.728;2022-08-04T18:35:06;22.60;99.90
70368;DHT22;57789;53.868;10.728;2022-08-04T18:37:33;22.50;99.90
70368;DHT22;57789;53.868;10.728;2022-08-04T18:40:00;22.50;99.90
70368;DHT22;57789;53.868;10.728;2022-08-04T18:42:26;22.40;99.90
70368;DHT22;57789;53.868;10.728;2022-08-04T18:44:52;22.30;99.90
70368;DHT22;57789;53.868;10.728;2022-08-04T18:47:21;22.30;99.90
70368;DHT22;57789;53.868;10.728;2022-08-04T18:49:50;22.30;99.90
70368;DHT22;57789;53.868;10.728;2022-08-04T18:52:15;22.30;99.90
70368;DHT22;57789;53.868;10.728;2022-08-04T18:54:41;22.30;99.90
70368;DHT22;57789;53.868;10.728;2022-08-04T18:57:07;22.20;99.90
70368;DHT22;57789;53.868;10.728;2022-08-04T18:59:32;22.10;99.90
70368;DHT22;57789;53.868;10.728;2022-08-04T19:01:58;22.10;99.90
70368;DHT22;57789;53.868;10.728;2022-08-04T19:04:23;21.90;99.90
70368;DHT22;57789;53.868;10.728;2022-08-04T19:06:49;21.90;99.90
70368;DHT22;57789;53.868;10.728;2022-08-04T19:09:15;21.80;99.90
70368;DHT22;57789;53.868;10.728;2022-08-04T19:11:40;21.80;99.90
70368;DHT22;57789;53.868;10.728;2022-08-04T19:14:06;21.80;99.90
70368;DHT22;57789;53.868;10.728;2022-08-04T19:16:33;21.90;99.90
70368;DHT22;57789;53.868;10.728;2022-08-04T19:19:01;21.90;99.90
70368;DHT22;57789;53.868;10.728;2022-08-04T19:21:28;22.00;99.90
70368;DHT22;57789;53.868;10.728;2022-08-04T19:23:54;22.10;99.90
70368;DHT22;57789;53.868;10.728;2022-08-04T19:26:20;22.00;99.90
70368;DHT22;57789;53.868;10.728;2022-08-04T19:28:47;21.80;99.90
70368;DHT22;57789;53.868;10.728;2022-08-04T19:31:13;22.00;99.90
70368;DHT22;57789;53.868;10.728;2022-08-04T19:33:39;22.00;99.90
70368;DHT22;57789;53.868;10.728;2022-08-04T19:36:06;21.90;99.90
70368;DHT22;57789;53.868;10.728;2022-08-04T19:38:33;21.80;99.90
70368;DHT22;57789;53.868;10.728;2022-08-04T19:40:59;21.90;99.90
70368;DHT22;57789;53.868;10.728;2022-08-04T19:43:25;21.80;99.90
70368;DHT22;57789;53.868;10.728;2022-08-04T19:45:50;21.90;99.90
70368;DHT22;57789;53.868;10.728;2022-08-04T19:48:16;21.80;99.90
70368;DHT22;57789;53.868;10.728;2022-08-04T19:50:42;21.90;99.90
70368;DHT22;57789;53.868;10.728;2022-08-04T19:53:08;21.80;99.90
70368;DHT22;57789;53.868;10.728;2022-08-04T19:55:34;21.80;99.90
70368;DHT22;57789;53.868;10.728;2022-08-04T19:58:03;21.70;99.90
70368;DHT22;57789;53.868;10.728;2022-08-04T20:00:29;21.70;99.90
70368;DHT22;57789;53.868;10.728;2022-08-04T20:02:55;21.70;99.90
70368;DHT22;57789;53.868;10.728;2022-08-04T20:05:21;21.70;99.90
70368;DHT22;57789;53.868;10.728;2022-08-04T20:07:47;21.80;99.90
70368;DHT22;57789;53.868;10.728;2022-08-04T20:10:13;21.80;99.90